Time;durP1;ratioP1;P1;durP2;ratioP2;P2;SDS_P1;SDS_P2;PMS_P1;PMS_P2;Temp;Humidity;BMP_temperature;BMP_pressure;BME280_temperature;BME280_humidity;BME280_pressure;Samples;Min_cycle;Max_cycle;Signal;HPM_P1;HPM_P2
2023/08/01 00:02:34;;;;;;;16.23;4.93;;;;;;;-147.32;100.00;65238.50;10458116;28;20042;-75
2023/08/01 00:07:34;;;;;;;14.98;6.22;;;;;;;-147.32;100.00;65238.50;10419507;28;20061;-74
2023/08/01 00:12:35;;;;;;;19.83;6.15;;;;;;;-147.32;100.00;65238.50;10451318;28;20037;-75
2023/08/01 00:17:35;;;;;;;11.30;5.50;;;;;;;-147.32;100.00;65238.50;10455972;28;20481;-76
2023/08/01 00:22:36;;;;;;;12.38;6.05;;;;;;;-147.32;100.00;65238.50;10446631;28;20037;-76
2023/08/01 00:27:36;;;;;;;18.88;7.28;;;;;;;-147.32;100.00;65238.50;10425495;28;20037;-76
2023/08/01 00:32:37;;;;;;;20.85;6.22;;;;;;;-147.32;100.00;65238.50;10405517;28;20063;-75
2023/08/01 00:37:38;;;;;;;15.43;6.70;;;;;;;-147.32;100.00;65238.50;10440916;28;20089;-76
2023/08/01 00:42:38;;;;;;;16.05;7.57;;;;;;;-147.32;100.00;65238.50;10453029;28;20109;-73
2023/08/01 00:47:39;;;;;;;19.33;6.80;;;;;;;-147.32;100.00;65238.50;10439095;28;20037;-75
2023/08/01 00:52:39;;;;;;;20.63;7.80;;;;;;;-147.32;100.00;65238.50;10465345;28;20036;-75
2023/08/01 00:57:40;;;;;;;17.27;7.45;;;;;;;-147.32;100.00;65238.50;10465992;28;20354;-75
2023/08/01 01:02:40;;;;;;;20.55;8.93;;;;;;;-147.32;100.00;65238.50;10417949;28;20048;-75
2023/08/01 01:07:41;;;;;;;26.30;10.35;;;;;;;-147.32;100.00;65238.50;10443108;28;20033;-76
2023/08/01 01:12:41;;;;;;;18.30;8.20;;;;;;;-147.32;100.00;65238.50;10455590;28;20112;-76
2023/08/01 01:17:42;;;;;;;20.58;9.48;;;;;;;-147.32;100.00;65238.50;10457054;28;20080;-76
2023/08/01 01:22:43;;;;;;;14.15;6.53;;;;;;;-147.32;100.00;65238.50;10432547;28;20083;-75
2023/08/01 01:27:45;;;;;;;19.83;7.22;;;;;;;-147.32;100.00;65238.50;10423830;28;20120;-75
2023/08/01 01:32:46;;;;;;;12.10;7.47;;;;;;;-147.32;100.00;65238.50;10420566;28;20117;-72
2023/08/01 01:37:46;;;;;;;11.38;6.47;;;;;;;-147.32;100.00;65238.50;10460744;28;20060;-76
2023/08/01 01:42:48;;;;;;;12.10;5.35;;;;;;;-147.32;100.00;65238.50;10449414;28;20041;-75
2023/08/01 01:47:48;;;;;;;10.43;5.75;;;;;;;-147.32;100.00;65238.50;10443607;28;20186;-75
2023/08/01 01:52:49;;;;;;;9.30;4.53;;;;;;;-147.32;100.00;65238.50;10461915;28;20416;-75
2023/08/01 01:57:49;;;;;;;16.58;4.45;;;;;;;-147.32;100.00;65238.50;10441996;28;20036;-73
2023/08/01 02:02:50;;;;;;;10.13;4.88;;;;;;;-147.32;100.00;65238.50;10454795;28;20048;-76
2023/08/01 02:07:50;;;;;;;9.80;4.50;;;;;;;-147.32;100.00;65238.50;10413711;28;20048;-74
2023/08/01 02:12:51;;;;;;;13.75;4.40;;;;;;;-147.32;100.00;65238.50;10449988;28;20049;-75
2023/08/01 02:17:52;;;;;;;11.82;4.43;;;;;;;-147.32;100.00;65238.50;10478581;28;20314;-74
2023/08/01 02:22:52;;;;;;;11.20;4.63;;;;;;;-147.32;100.00;65238.50;10440147;28;20046;-75
2023/08/01 02:27:53;;;;;;;15.13;4.68;;;;;;;-147.32;100.00;65238.50;10440665;28;20041;-73
2023/08/01 02:32:53;;;;;;;11.68;4.03;;;;;;;-147.32;100.00;65238.50;10456130;28;20044;-74
2023/08/01 02:37:56;;;;;;;6.97;3.63;;;;;;;-147.32;100.00;65238.50;10417592;28;20091;-74
2023/08/01 02:42:56;;;;;;;13.98;4.38;;;;;;;-147.32;100.00;65238.50;10465247;28;20042;-74
2023/08/01 02:47:57;;;;;;;12.02;4.55;;;;;;;-147.32;100.00;65238.50;10453780;28;20037;-74
2023/08/01 02:52:58;;;;;;;15.02;4.38;;;;;;;-147.32;100.00;65238.50;10423964;28;20068;-74
2023/08/01 02:57:59;;;;;;;13.45;4.78;;;;;;;-147.32;100.00;65238.50;10398127;28;20119;-74
2023/08/01 03:02:59;;;;;;;13.07;4.10;;;;;;;-147.32;100.00;65238.50;10384501;28;20037;-71
2023/08/01 03:08:00;;;;;;;12.73;4.13;;;;;;;-147.32;100.00;65238.50;10367352;28;20038;-73
2023/08/01 03:13:01;;;;;;;14.20;5.05;;;;;;;-147.32;100.00;65238.50;10372955;28;20429;-72
2023/08/01 03:18:01;;;;;;;14.50;4.63;;;;;;;-147.32;100.00;65238.50;10381960;28;20041;-73
2023/08/01 03:23:02;;;;;;;10.75;5.30;;;;;;;-147.32;100.00;65238.50;10402690;28;20052;-73
2023/08/01 03:28:04;;;;;;;15.75;5.57;;;;;;;-147.32;100.00;65238.50;10388438;28;20089;-73
2023/08/01 03:33:04;;;;;;;12.60;5.45;;;;;;;-147.32;100.00;65238.50;10393778;28;20038;-72
2023/08/01 03:38:05;;;;;;;15.13;5.63;;;;;;;-147.32;100.00;65238.50;10357588;28;20042;-73
2023/08/01 03:43:06;;;;;;;12.25;6.28;;;;;;;-147.32;100.00;65238.50;10389706;28;20041;-73
2023/08/01 03:48:06;;;;;;;13.98;6.25;;;;;;;-147.32;100.00;65238.50;10378341;28;20030;-74
2023/08/01 03:53:07;;;;;;;19.13;7.13;;;;;;;-147.32;100.00;65238.50;10389913;28;20276;-74
2023/08/01 03:58:08;;;;;;;18.23;7.25;;;;;;;-147.32;100.00;65238.50;10382158;28;20030;-74
2023/08/01 04:03:09;;;;;;;20.38;6.68;;;;;;;-147.32;100.00;65238.50;10416614;28;20060;-74
2023/08/01 04:08:09;;;;;;;19.33;7.53;;;;;;;-147.32;100.00;65238.50;10426274;28;20071;-75
2023/08/01 04:13:11;;;;;;;14.73;6.93;;;;;;;-147.32;100.00;65238.50;10468467;28;20052;-74
2023/08/01 04:18:11;;;;;;;15.13;6.28;;;;;;;-147.32;100.00;65238.50;10463998;28;20041;-74
2023/08/01 04:23:12;;;;;;;12.23;6.10;;;;;;;-147.32;100.00;65238.50;10455974;28;20041;-74
2023/08/01 04:28:12;;;;;;;13.15;5.05;;;;;;;-147.32;100.00;65238.50;10408689;28;20034;-75
2023/08/01 04:33:13;;;;;;;11.73;5.35;;;;;;;-147.32;100.00;65238.50;10441486;28;20036;-74
2023/08/01 04:38:13;;;;;;;17.38;5.20;;;;;;;-147.32;100.00;65238.50;10454178;28;20044;-75
2023/08/01 04:43:14;;;;;;;12.60;5.13;;;;;;;-147.32;100.00;65238.50;10469067;28;20331;-74
2023/08/01 04:48:14;;;;;;;23.88;6.90;;;;;;;-147.32;100.00;65238.50;10449319;28;20551;-74
2023/08/01 04:53:15;;;;;;;13.38;4.53;;;;;;;-147.32;100.00;65238.50;10452500;28;20068;-74
2023/08/01 04:58:15;;;;;;;11.52;5.63;;;;;;;-147.32;100.00;65238.50;10436555;28;20092;-74
2023/08/01 05:03:16;;;;;;;13.48;4.97;;;;;;;-147.32;100.00;65238.50;10416893;28;20429;-75
2023/08/01 05:08:16;;;;;;;8.70;4.25;;;;;;;-147.32;100.00;65238.50;10420837;28;20132;-75
2023/08/01 05:13:17;;;;;;;11.52;3.85;;;;;;;-147.32;100.00;65238.50;10413912;28;20040;-74
2023/08/01 05:18:18;;;;;;;11.48;3.60;;;;;;;-147.32;100.00;65238.50;10471791;28;20037;-74
2023/08/01 05:23:18;;;;;;;12.02;3.25;;;;;;;-147.32;100.00;65238.50;10422760;28;20076;-74
2023/08/01 05:28:19;;;;;;;8.40;2.60;;;;;;;-147.32;100.00;65238.50;10438101;28;20036;-74
2023/08/01 05:33:19;;;;;;;7.93;2.50;;;;;;;-147.32;100.00;65238.50;10449442;28;20437;-72
2023/08/01 05:38:20;;;;;;;9.15;2.67;;;;;;;-147.32;100.00;65238.50;10443453;28;20052;-75
2023/08/01 05:43:20;;;;;;;8.40;1.90;;;;;;;-147.32;100.00;65238.50;10451685;28;20044;-74
2023/08/01 05:48:21;;;;;;;28.95;4.10;;;;;;;-147.32;100.00;65238.50;10479697;28;20036;-74
2023/08/01 05:53:22;;;;;;;5.20;2.03;;;;;;;-147.32;100.00;65238.50;10438962;28;20063;-75
2023/08/01 05:58:22;;;;;;;5.82;2.00;;;;;;;-147.32;100.00;65238.50;10446519;28;20519;-74
2023/08/01 06:03:23;;;;;;;5.75;1.55;;;;;;;-147.32;100.00;65238.50;10420150;28;20037;-75
2023/08/01 06:08:23;;;;;;;7.88;2.25;;;;;;;-147.32;100.00;65238.50;10459754;28;20032;-75
2023/08/01 06:13:24;;;;;;;4.05;1.70;;;;;;;-147.32;100.00;65238.50;10450656;28;20044;-74
2023/08/01 06:18:24;;;;;;;4.00;1.42;;;;;;;-147.32;100.00;65238.50;10460367;28;20467;-75
2023/08/01 06:23:24;;;;;;;5.15;1.70;;;;;;;-147.32;100.00;65238.50;10450344;28;20122;-71
2023/08/01 06:28:25;;;;;;;2.25;0.93;;;;;;;-147.32;100.00;65238.50;10479541;28;20040;-74
2023/08/01 06:33:26;;;;;;;3.90;1.10;;;;;;;-147.32;100.00;65238.50;10472857;28;20095;-74
2023/08/01 06:38:26;;;;;;;4.07;1.23;;;;;;;-147.32;100.00;65238.50;10449540;28;20036;-73
2023/08/01 06:43:27;;;;;;;6.03;1.48;;;;;;;-147.32;100.00;65238.50;10456377;28;20075;-73
2023/08/01 06:48:27;;;;;;;7.00;1.40;;;;;;;-147.32;100.00;65238.50;10441981;28;20036;-74
2023/08/01 06:53:28;;;;;;;7.90;1.45;;;;;;;-147.32;100.00;65238.50;10438542;28;20037;-74
2023/08/01 06:58:28;;;;;;;7.72;1.40;;;;;;;-147.32;100.00;65238.50;10456194;28;20037;-74
2023/08/01 07:03:29;;;;;;;2.15;1.15;;;;;;;-147.32;100.00;65238.50;10432068;28;20045;-75
2023/08/01 07:08:29;;;;;;;3.35;1.30;;;;;;;-147.32;100.00;65238.50;10436418;28;20070;-74
2023/08/01 07:13:30;;;;;;;5.63;1.88;;;;;;;-147.32;100.00;65238.50;10436624;28;20064;-71
2023/08/01 07:18:30;;;;;;;7.03;2.03;;;;;;;-147.32;100.00;65238.50;10457690;28;20104;-74
2023/08/01 07:23:32;;;;;;;2.88;1.65;;;;;;;-147.32;100.00;65238.50;10412515;28;20041;-74
2023/08/01 07:28:33;;;;;;;4.03;1.50;;;;;;;-147.32;100.00;65238.50;10443364;28;20082;-73
2023/08/01 07:33:33;;;;;;;3.85;1.30;;;;;;;-147.32;100.00;65238.50;10441521;28;20091;-74
2023/08/01 07:38:34;;;;;;;2.45;1.33;;;;;;;-147.32;100.00;65238.50;10435046;28;20232;-74
2023/08/01 07:43:34;;;;;;;2.65;1.17;;;;;;;-147.32;100.00;65238.50;10419239;28;20070;-72
2023/08/01 07:48:35;;;;;;;4.78;1.58;;;;;;;-147.32;100.00;65238.50;10456514;28;20044;-72
2023/08/01 07:53:35;;;;;;;4.18;1.02;;;;;;;-147.32;100.00;65238.50;10423402;28;20045;-71
2023/08/01 07:58:36;;;;;;;6.15;0.95;;;;;;;-147.32;100.00;65238.50;10453590;28;20032;-71
2023/08/01 08:03:36;;;;;;;4.82;1.00;;;;;;;-147.32;100.00;65238.50;10440511;28;20044;-71
2023/08/01 08:08:37;;;;;;;3.70;0.88;;;;;;;-147.32;100.00;65238.50;10454045;28;20040;-69
2023/08/01 08:13:37;;;;;;;5.25;2.13;;;;;;;-147.32;100.00;65238.50;10423667;28;20045;-71
2023/08/01 08:18:38;;;;;;;4.13;1.90;;;;;;;-147.32;100.00;65238.50;10461563;28;20059;-71
2023/08/01 08:23:38;;;;;;;2.42;0.77;;;;;;;-147.32;100.00;65238.50;10455778;28;20044;-71
2023/08/01 08:28:40;;;;;;;5.32;1.00;;;;;;;-147.32;100.00;65238.50;10468623;28;20036;-71
2023/08/01 08:33:40;;;;;;;3.05;1.08;;;;;;;-147.32;100.00;65238.50;10454379;28;20037;-75
2023/08/01 08:38:41;;;;;;;2.35;0.90;;;;;;;-147.32;100.00;65238.50;10430315;28;20036;-75
2023/08/01 08:43:41;;;;;;;2.83;1.30;;;;;;;-147.32;100.00;65238.50;10473960;28;20049;-75
2023/08/01 08:48:42;;;;;;;5.55;1.45;;;;;;;-147.32;100.00;65238.50;10424168;28;20040;-73
2023/08/01 08:53:42;;;;;;;2.42;1.05;;;;;;;-147.32;100.00;65238.50;10447930;28;20051;-73
2023/08/01 08:58:43;;;;;;;3.30;0.80;;;;;;;-147.32;100.00;65238.50;10427410;28;20052;-72
2023/08/01 09:03:44;;;;;;;3.70;0.85;;;;;;;-147.32;100.00;65238.50;10402100;28;20494;-70
2023/08/01 09:08:51;;;;;;;3.13;0.82;;;;;;;-147.32;100.00;65238.50;10434675;28;20045;-73
2023/08/01 09:13:52;;;;;;;4.15;1.60;;;;;;;-147.32;100.00;65238.50;10409572;28;20042;-73
2023/08/01 09:18:53;;;;;;;2.67;0.93;;;;;;;-147.32;100.00;65238.50;10458037;28;20041;-74
2023/08/01 09:23:53;;;;;;;2.17;0.90;;;;;;;-147.32;100.00;65238.50;10452928;28;20048;-72
2023/08/01 09:28:57;;;;;;;3.45;0.98;;;;;;;-147.32;100.00;65238.50;10476052;28;20128;-72
2023/08/01 09:33:57;;;;;;;2.67;0.77;;;;;;;-147.32;100.00;65238.50;10429361;28;20053;-72
2023/08/01 09:39:02;;;;;;;2.90;1.10;;;;;;;-147.32;100.00;65238.50;10455931;28;20049;-71
2023/08/01 09:44:03;;;;;;;2.60;1.55;;;;;;;-147.32;100.00;65238.50;10439498;28;20048;-71
2023/08/01 09:49:09;;;;;;;3.20;1.30;;;;;;;-147.32;100.00;65238.50;10446628;28;20048;-71
2023/08/01 09:54:10;;;;;;;7.13;2.05;;;;;;;-147.32;100.00;65238.50;10456785;28;20037;-72
2023/08/01 09:59:10;;;;;;;4.18;1.50;;;;;;;-147.32;100.00;65238.50;10460277;28;20591;-71
2023/08/01 10:04:11;;;;;;;5.13;1.67;;;;;;;-147.32;100.00;65238.50;10450448;28;20103;-71
2023/08/01 10:09:11;;;;;;;3.60;1.35;;;;;;;-147.32;100.00;65238.50;10431950;28;20033;-71
2023/08/01 10:14:12;;;;;;;4.32;0.68;;;;;;;-147.32;100.00;65238.50;10415601;28;20484;-70
2023/08/01 10:19:13;;;;;;;5.20;1.02;;;;;;;-147.32;100.00;65238.50;10421925;28;20408;-70
2023/08/01 10:24:13;;;;;;;4.95;0.90;;;;;;;-147.32;100.00;65238.50;10436289;28;20063;-70
2023/08/01 10:29:14;;;;;;;4.65;1.00;;;;;;;-147.32;100.00;65238.50;10426725;28;20038;-70
2023/08/01 10:34:14;;;;;;;4.07;1.48;;;;;;;-147.32;100.00;65238.50;10444006;28;20041;-71
2023/08/01 10:39:21;;;;;;;2.97;1.15;;;;;;;-147.32;100.00;65238.50;10431425;28;20049;-70
2023/08/01 10:44:21;;;;;;;;;;;;;;;-147.32;100.00;65238.50;10440058;28;20055;-71
2023/08/01 10:49:32;;;;;;;3.83;0.60;;;;;;;-147.32;100.00;65238.50;10442992;28;19921;-71
2023/08/01 10:54:37;;;;;;;4.00;1.52;;;;;;;-147.32;100.00;65238.50;10453389;28;20311;-71
2023/08/01 10:59:37;;;;;;;3.72;1.10;;;;;;;-147.32;100.00;65238.50;10407922;28;20086;-70
2023/08/01 11:04:38;;;;;;;3.97;1.10;;;;;;;-147.32;100.00;65238.50;10423650;28;20056;-70
2023/08/01 11:09:39;;;;;;;3.63;1.33;;;;;;;-147.32;100.00;65238.50;10470144;28;20104;-73
2023/08/01 11:14:40;;;;;;;5.20;1.73;;;;;;;-147.32;100.00;65238.50;10421640;28;20041;-73
2023/08/01 11:19:40;;;;;;;6.88;1.98;;;;;;;-147.32;100.00;65238.50;10419703;28;20100;-74
2023/08/01 11:24:41;;;;;;;11.70;2.95;;;;;;;-147.32;100.00;65238.50;10437562;28;20033;-75
2023/08/01 11:29:42;;;;;;;8.68;3.05;;;;;;;-147.32;100.00;65238.50;10410261;28;20068;-75
2023/08/01 11:34:46;;;;;;;5.78;3.30;;;;;;;-147.32;100.00;65238.50;10410433;28;20041;-74
2023/08/01 11:39:46;;;;;;;10.30;3.03;;;;;;;-147.32;100.00;65238.50;10408561;28;20385;-78
2023/08/01 11:44:47;;;;;;;5.35;3.05;;;;;;;-147.32;100.00;65238.50;10394500;28;20032;-76
2023/08/01 11:49:48;;;;;;;4.10;1.77;;;;;;;-147.32;100.00;65238.50;10423905;28;20044;-77
2023/08/01 11:54:49;;;;;;;3.72;2.03;;;;;;;-147.32;100.00;65238.50;10437718;28;20563;-77
2023/08/01 11:59:55;;;;;;;5.68;1.63;;;;;;;-147.32;100.00;65238.50;10427928;28;20045;-76
2023/08/01 12:04:55;;;;;;;4.70;1.48;;;;;;;-147.32;100.00;65238.50;10413863;28;20057;-74
2023/08/01 12:09:59;;;;;;;3.20;0.90;;;;;;;-147.32;100.00;65238.50;10454255;28;20065;-72
2023/08/01 12:15:00;;;;;;;3.83;1.73;;;;;;;-147.32;100.00;65238.50;10423375;28;20552;-72
2023/08/01 12:20:01;;;;;;;4.45;1.15;;;;;;;-147.32;100.00;65238.50;10457908;28;20040;-74
2023/08/01 12:25:01;;;;;;;6.32;1.13;;;;;;;-147.32;100.00;65238.50;10441229;28;20105;-73
2023/08/01 12:30:02;;;;;;;2.80;0.90;;;;;;;-147.32;100.00;65238.50;10453962;28;20036;-72
2023/08/01 12:35:03;;;;;;;2.90;0.88;;;;;;;-147.32;100.00;65238.50;10451632;28;20044;-71
2023/08/01 12:40:04;;;;;;;4.07;0.77;;;;;;;-147.32;100.00;65238.50;10447493;28;20044;-72
2023/08/01 12:45:05;;;;;;;2.20;0.60;;;;;;;-147.32;100.00;65238.50;10457876;28;20037;-72
2023/08/01 12:50:06;;;;;;;7.75;0.63;;;;;;;-147.32;100.00;65238.50;10428596;28;20082;-72
2023/08/01 12:55:07;;;;;;;2.80;0.77;;;;;;;-147.32;100.00;65238.50;10449122;28;20040;-71
2023/08/01 13:00:10;;;;;;;5.00;1.67;;;;;;;-147.32;100.00;65238.50;10444365;28;20041;-71
2023/08/01 13:05:10;;;;;;;5.35;1.15;;;;;;;-147.32;100.00;65238.50;10402594;28;20044;-70
2023/08/01 13:10:11;;;;;;;2.65;0.70;;;;;;;-147.32;100.00;65238.50;10446015;28;20041;-70
2023/08/01 13:15:11;;;;;;;1.38;0.70;;;;;;;-147.32;100.00;65238.50;10442405;28;20082;-70
2023/08/01 13:20:12;;;;;;;4.35;0.90;;;;;;;-147.32;100.00;65238.50;10447276;28;25264;-70
2023/08/01 13:25:13;;;;;;;5.18;0.85;;;;;;;-147.32;100.00;65238.50;10418659;28;20558;-69
2023/08/01 13:30:14;;;;;;;4.68;1.27;;;;;;;-147.32;100.00;65238.50;10446946;28;20044;-70
2023/08/01 13:35:15;;;;;;;5.28;1.20;;;;;;;-147.32;100.00;65238.50;10428510;28;20041;-69
2023/08/01 13:40:15;;;;;;;4.00;0.88;;;;;;;-147.32;100.00;65238.50;10412127;28;20049;-70
2023/08/01 13:45:16;;;;;;;6.30;0.90;;;;;;;-147.32;100.00;65238.50;10464351;28;20065;-71
2023/08/01 13:50:16;;;;;;;5.28;1.10;;;;;;;-147.32;100.00;65238.50;10430603;28;20026;-70
2023/08/01 13:55:18;;;;;;;3.45;0.73;;;;;;;-147.32;100.00;65238.50;10439798;28;20037;-69
2023/08/01 14:00:19;;;;;;;4.32;1.00;;;;;;;-147.32;100.00;65238.50;10429703;28;20071;-70
2023/08/01 14:05:19;;;;;;;5.95;1.77;;;;;;;-147.32;100.00;65238.50;10452671;28;20436;-70
2023/08/01 14:10:21;;;;;;;3.38;0.93;;;;;;;-147.32;100.00;65238.50;10421734;28;20034;-69
2023/08/01 14:15:22;;;;;;;2.97;0.60;;;;;;;-147.32;100.00;65238.50;10454180;28;20041;-70
2023/08/01 14:20:22;;;;;;;4.07;0.95;;;;;;;-147.32;100.00;65238.50;10420273;28;20075;-69
2023/08/01 14:25:23;;;;;;;6.45;1.38;;;;;;;-147.32;100.00;65238.50;10442783;28;20090;-68
2023/08/01 14:30:23;;;;;;;2.25;0.80;;;;;;;-147.32;100.00;65238.50;10444592;28;20048;-71
2023/08/01 14:35:24;;;;;;;2.55;0.80;;;;;;;-147.32;100.00;65238.50;10447736;28;20036;-69
2023/08/01 14:40:24;;;;;;;5.78;1.17;;;;;;;-147.32;100.00;65238.50;10430210;28;20412;-69
2023/08/01 14:45:25;;;;;;;4.82;1.23;;;;;;;-147.32;100.00;65238.50;10435296;28;20087;-69
2023/08/01 14:50:25;;;;;;;4.00;0.80;;;;;;;-147.32;100.00;65238.50;10408667;28;20435;-69
2023/08/01 14:55:26;;;;;;;5.32;0.82;;;;;;;-147.32;100.00;65238.50;10445936;28;20437;-69
2023/08/01 15:00:26;;;;;;;3.28;0.80;;;;;;;-147.32;100.00;65238.50;10432317;28;20116;-70
2023/08/01 15:05:27;;;;;;;2.88;1.23;;;;;;;-147.32;100.00;65238.50;10432583;28;20033;-69
2023/08/01 15:10:27;;;;;;;3.08;1.00;;;;;;;-147.32;100.00;65238.50;10429302;28;20179;-70
2023/08/01 15:15:27;;;;;;;3.92;1.10;;;;;;;-147.32;100.00;65238.50;10429182;28;20187;-72
2023/08/01 15:20:28;;;;;;;2.45;1.70;;;;;;;-147.32;100.00;65238.50;10419456;28;20052;-72
2023/08/01 15:25:29;;;;;;;2.42;1.27;;;;;;;-147.32;100.00;65238.50;10455946;28;20040;-71
2023/08/01 15:30:29;;;;;;;6.13;1.90;;;;;;;-147.32;100.00;65238.50;10408285;28;20049;-71
2023/08/01 15:35:30;;;;;;;4.05;1.40;;;;;;;-147.32;100.00;65238.50;10432865;28;20586;-71
2023/08/01 15:40:30;;;;;;;3.33;1.38;;;;;;;-147.32;100.00;65238.50;10424853;28;20095;-70
2023/08/01 15:45:31;;;;;;;4.20;1.42;;;;;;;-147.32;100.00;65238.50;10461956;28;20066;-71
2023/08/01 15:50:31;;;;;;;5.93;1.63;;;;;;;-147.32;100.00;65238.50;10476610;28;20037;-70
2023/08/01 15:55:32;;;;;;;4.28;1.20;;;;;;;-147.32;100.00;65238.50;10434368;28;20033;-70
2023/08/01 16:00:32;;;;;;;4.38;1.45;;;;;;;-147.32;100.00;65238.50;10464479;28;20044;-70
2023/08/01 16:05:33;;;;;;;5.53;1.10;;;;;;;-147.32;100.00;65238.50;10476468;28;20033;-70
2023/08/01 16:10:33;;;;;;;5.43;1.20;;;;;;;-147.32;100.00;65238.50;10455548;28;20361;-70
2023/08/01 16:15:34;;;;;;;4.80;1.25;;;;;;;-147.32;100.00;65238.50;10474399;28;20032;-70
2023/08/01 16:20:35;;;;;;;6.53;1.50;;;;;;;-147.32;100.00;65238.50;10453461;28;20483;-70
2023/08/01 16:25:36;;;;;;;6.95;1.55;;;;;;;-147.32;100.00;65238.50;10409989;28;20101;-70
2023/08/01 16:30:37;;;;;;;4.18;1.00;;;;;;;-147.32;100.00;65238.50;10472822;28;20057;-70
2023/08/01 16:35:37;;;;;;;4.60;1.30;;;;;;;-147.32;100.00;65238.50;10462780;28;20039;-69
2023/08/01 16:40:38;;;;;;;5.18;1.45;;;;;;;-147.32;100.00;65238.50;10453595;28;20124;-69
2023/08/01 16:45:39;;;;;;;8.88;0.90;;;;;;;-147.32;100.00;65238.50;10426480;28;20087;-69
2023/08/01 16:50:39;;;;;;;5.10;1.05;;;;;;;-147.32;100.00;65238.50;10456737;28;20040;-69
2023/08/01 16:55:40;;;;;;;5.40;0.98;;;;;;;-147.32;100.00;65238.50;10458276;28;20040;-68
2023/08/01 17:00:40;;;;;;;5.95;0.85;;;;;;;-147.32;100.00;65238.50;10471963;28;22139;-70
2023/08/01 17:05:41;;;;;;;4.85;0.88;;;;;;;-147.32;100.00;65238.50;10457302;28;20100;-70
2023/08/01 17:10:41;;;;;;;4.90;0.90;;;;;;;-147.32;100.00;65238.50;10471144;28;20037;-69
2023/08/01 17:15:42;;;;;;;6.88;1.33;;;;;;;-147.32;100.00;65238.50;10455475;28;20343;-70
2023/08/01 17:20:42;;;;;;;4.93;1.10;;;;;;;-147.32;100.00;65238.50;10454185;28;20070;-69
2023/08/01 17:25:43;;;;;;;8.75;1.42;;;;;;;-147.32;100.00;65238.50;10410808;28;20040;-69
2023/08/01 17:30:44;;;;;;;4.05;0.65;;;;;;;-147.32;100.00;65238.50;10447327;28;20064;-70
2023/08/01 17:35:44;;;;;;;4.70;1.10;;;;;;;-147.32;100.00;65238.50;10477805;28;20478;-70
2023/08/01 17:40:45;;;;;;;3.58;0.88;;;;;;;-147.32;100.00;65238.50;10459217;28;20041;-69
2023/08/01 17:45:45;;;;;;;7.55;1.30;;;;;;;-147.32;100.00;65238.50;10449357;28;20171;-69
2023/08/01 17:50:45;;;;;;;4.90;0.88;;;;;;;-147.32;100.00;65238.50;10455445;28;20520;-69
2023/08/01 17:55:46;;;;;;;4.47;0.82;;;;;;;-147.32;100.00;65238.50;10436141;28;20072;-70
2023/08/01 18:00:47;;;;;;;5.45;1.45;;;;;;;-147.32;100.00;65238.50;10458490;28;20041;-69
2023/08/01 18:05:48;;;;;;;1.63;0.88;;;;;;;-147.32;100.00;65238.50;10427740;28;20041;-69
2023/08/01 18:10:48;;;;;;;6.05;1.10;;;;;;;-147.32;100.00;65238.50;10417405;28;20104;-69
2023/08/01 18:15:49;;;;;;;6.30;1.25;;;;;;;-147.32;100.00;65238.50;10441040;28;20416;-69
2023/08/01 18:21:00;;;;;;;7.55;1.52;;;;;;;-147.32;100.00;65238.50;10406020;28;20051;-69
2023/08/01 18:26:01;;;;;;;2.83;1.10;;;;;;;-147.32;100.00;65238.50;10426225;28;20086;-70
2023/08/01 18:31:08;;;;;;;3.13;1.20;;;;;;;-147.32;100.00;65238.50;10397014;28;20054;-70
2023/08/01 18:36:13;;;;;;;2.83;1.17;;;;;;;-147.32;100.00;65238.50;10367526;28;20037;-69
2023/08/01 18:41:15;;;;;;;6.60;2.17;;;;;;;-147.32;100.00;65238.50;10423740;28;20068;-69
2023/08/01 18:46:18;;;;;;;10.82;2.03;;;;;;;-147.32;100.00;65238.50;10429829;28;20047;-69
2023/08/01 18:51:19;;;;;;;7.43;1.65;;;;;;;-147.32;100.00;65238.50;10378349;28;20041;-70
2023/08/01 18:56:20;;;;;;;2.58;1.30;;;;;;;-147.32;100.00;65238.50;10407172;28;20052;-69
2023/08/01 19:01:22;;;;;;;6.05;1.58;;;;;;;-147.32;100.00;65238.50;10433106;28;20041;-69
2023/08/01 19:06:25;;;;;;;9.27;3.03;;;;;;;-147.32;100.00;65238.50;10392590;28;20073;-69
2023/08/01 19:11:29;;;;;;;5.18;1.10;;;;;;;-147.32;100.00;65238.50;10416383;28;20056;-70
2023/08/01 19:16:32;;;;;;;4.72;1.25;;;;;;;-147.32;100.00;65238.50;10400563;28;20109;-69
2023/08/01 19:21:33;;;;;;;5.50;1.23;;;;;;;-147.32;100.00;65238.50;10411402;28;20394;-69
2023/08/01 19:26:33;;;;;;;4.72;1.30;;;;;;;-147.32;100.00;65238.50;10434083;28;20045;-70
2023/08/01 19:31:34;;;;;;;5.85;2.28;;;;;;;-147.32;100.00;65238.50;10435762;28;20037;-70
2023/08/01 19:36:35;;;;;;;3.08;1.00;;;;;;;-147.32;100.00;65238.50;10432960;28;20048;-70
2023/08/01 19:41:35;;;;;;;3.60;1.50;;;;;;;-147.32;100.00;65238.50;10417052;28;20405;-69
2023/08/01 19:46:36;;;;;;;5.45;2.17;;;;;;;-147.32;100.00;65238.50;10439837;28;20048;-70
2023/08/01 19:51:37;;;;;;;5.47;2.00;;;;;;;-147.32;100.00;65238.50;10435221;28;20094;-69
2023/08/01 19:56:37;;;;;;;10.27;2.47;;;;;;;-147.32;100.00;65238.50;10414689;28;20090;-69
2023/08/01 20:01:38;;;;;;;5.30;1.00;;;;;;;-147.32;100.00;65238.50;10421393;28;20040;-69
2023/08/01 20:06:38;;;;;;;3.25;1.10;;;;;;;-147.32;100.00;65238.50;10415700;28;20037;-69
2023/08/01 20:11:39;;;;;;;8.63;1.13;;;;;;;-147.32;100.00;65238.50;10395393;28;20506;-67
2023/08/01 20:16:40;;;;;;;4.80;1.60;;;;;;;-147.32;100.00;65238.50;10416123;28;20064;-69
2023/08/01 20:21:41;;;;;;;2.17;1.25;;;;;;;-147.32;100.00;65238.50;10431023;28;20033;-70
2023/08/01 20:26:44;;;;;;;4.70;1.50;;;;;;;-147.32;100.00;65238.50;10405299;28;20044;-69
2023/08/01 20:31:45;;;;;;;3.75;1.10;;;;;;;-147.32;100.00;65238.50;10397447;28;20048;-70
2023/08/01 20:36:45;;;;;;;3.50;1.25;;;;;;;-147.32;100.00;65238.50;10425018;28;20124;-68
2023/08/01 20:41:48;;;;;;;8.35;1.50;;;;;;;-147.32;100.00;65238.50;10378243;28;20117;-68
2023/08/01 20:46:49;;;;;;;5.00;1.67;;;;;;;-147.32;100.00;65238.50;10419389;28;20048;-69
2023/08/01 20:51:49;;;;;;;5.85;1.40;;;;;;;-147.32;100.00;65238.50;10385815;28;20418;-68
2023/08/01 20:56:50;;;;;;;5.80;1.20;;;;;;;-147.32;100.00;65238.50;10415821;28;20460;-69
2023/08/01 21:01:50;;;;;;;4.10;1.40;;;;;;;-147.32;100.00;65238.50;10427937;28;20042;-69
2023/08/01 21:06:51;;;;;;;8.70;2.70;;;;;;;-147.32;100.00;65238.50;10406330;28;21783;-69
2023/08/01 21:11:51;;;;;;;5.75;1.13;;;;;;;-147.32;100.00;65238.50;10441245;28;20044;-70
2023/08/01 21:16:52;;;;;;;8.43;1.63;;;;;;;-147.32;100.00;65238.50;10424126;28;20037;-68
2023/08/01 21:21:52;;;;;;;3.05;1.10;;;;;;;-147.32;100.00;65238.50;10429306;28;20037;-70
2023/08/01 21:26:53;;;;;;;3.03;1.23;;;;;;;-147.32;100.00;65238.50;10432076;28;20045;-69
2023/08/01 21:31:53;;;;;;;5.80;1.15;;;;;;;-147.32;100.00;65238.50;10395319;28;20124;-69
2023/08/01 21:36:54;;;;;;;4.22;1.20;;;;;;;-147.32;100.00;65238.50;10400275;28;20053;-69
2023/08/01 21:41:54;;;;;;;3.72;1.00;;;;;;;-147.32;100.00;65238.50;10430433;28;20049;-70
2023/08/01 21:46:55;;;;;;;5.85;1.23;;;;;;;-147.32;100.00;65238.50;10433273;28;20139;-70
2023/08/01 21:51:56;;;;;;;3.08;1.20;;;;;;;-147.32;100.00;65238.50;10424016;28;20037;-69
2023/08/01 21:56:56;;;;;;;4.55;0.90;;;;;;;-147.32;100.00;65238.50;10423066;28;20038;-69
2023/08/01 22:01:57;;;;;;;4.80;1.85;;;;;;;-147.32;100.00;65238.50;10424908;28;20068;-69
2023/08/01 22:06:57;;;;;;;4.80;1.15;;;;;;;-147.32;100.00;65238.50;10421728;28;20033;-70
2023/08/01 22:11:58;;;;;;;3.78;0.95;;;;;;;-147.32;100.00;65238.50;10437611;28;20429;-68
2023/08/01 22:16:58;;;;;;;2.05;0.90;;;;;;;-147.32;100.00;65238.50;10408324;28;20650;-68
2023/08/01 22:21:59;;;;;;;3.67;0.75;;;;;;;-147.32;100.00;65238.50;10432066;28;20045;-68
2023/08/01 22:27:00;;;;;;;6.30;1.38;;;;;;;-147.32;100.00;65238.50;10375953;28;20533;-69